createdAt,value
2022-11-10T00:00:17.356Z,1015.84
2022-11-10T00:01:17.352Z,1015.88
2022-11-10T00:02:17.330Z,1015.86
2022-11-10T00:03:17.333Z,1015.84
2022-11-10T00:04:17.375Z,1015.83
2022-11-10T00:05:17.322Z,1015.86
2022-11-10T00:06:17.297Z,1015.85
2022-11-10T00:07:17.304Z,1015.86
2022-11-10T00:08:17.275Z,1015.87
2022-11-10T00:09:17.274Z,1015.86
2022-11-10T00:10:17.234Z,1015.86
2022-11-10T00:11:17.215Z,1015.90
2022-11-10T00:12:17.203Z,1015.87
2022-11-10T00:13:17.225Z,1015.89
2022-11-10T00:14:17.176Z,1015.90
2022-11-10T00:15:17.157Z,1015.86
2022-11-10T00:16:17.184Z,1015.90
2022-11-10T00:17:17.157Z,1015.89
2022-11-10T00:18:17.126Z,1015.91
2022-11-10T00:19:17.113Z,1015.90
2022-11-10T00:20:17.079Z,1015.92
2022-11-10T00:21:17.101Z,1015.88
2022-11-10T00:22:17.071Z,1015.92
2022-11-10T00:23:17.064Z,1015.94
2022-11-10T00:24:17.040Z,1015.94
2022-11-10T00:25:17.033Z,1015.95
2022-11-10T00:26:17.015Z,1015.94
2022-11-10T00:27:17.004Z,1015.99
2022-11-10T00:28:17.005Z,1015.98
2022-11-10T00:29:16.990Z,1016.05
2022-11-10T00:30:16.983Z,1016.07
2022-11-10T00:31:16.947Z,1016.09
2022-11-10T00:32:16.934Z,1016.16
2022-11-10T00:33:16.927Z,1016.11
2022-11-10T00:34:16.920Z,1016.10
2022-11-10T00:35:16.927Z,1016.10
2022-11-10T00:36:16.895Z,1016.12
2022-11-10T00:37:16.901Z,1016.05
2022-11-10T00:38:16.853Z,1016.11
2022-11-10T00:39:16.862Z,1016.12
2022-11-10T00:40:16.853Z,1016.16
2022-11-10T00:41:17.085Z,1016.19
2022-11-10T00:42:16.846Z,1016.17
2022-11-10T00:43:16.804Z,1016.20
2022-11-10T00:44:16.815Z,1016.18
2022-11-10T00:45:16.794Z,1016.18
2022-11-10T00:46:16.754Z,1016.19
2022-11-10T00:47:16.753Z,1016.18
2022-11-10T00:48:16.754Z,1016.19
2022-11-10T00:49:16.760Z,1016.18
2022-11-10T00:50:16.716Z,1016.21
2022-11-10T00:51:16.711Z,1016.23
2022-11-10T00:52:16.731Z,1016.17
2022-11-10T00:53:16.683Z,1016.23
2022-11-10T00:54:16.651Z,1016.23
2022-11-10T00:55:16.673Z,1016.26
2022-11-10T00:56:16.707Z,1016.22
2022-11-10T00:57:16.686Z,1016.20
2022-11-10T00:58:16.629Z,1016.21
2022-11-10T00:59:16.591Z,1016.24
2022-11-10T01:00:16.599Z,1016.24
2022-11-10T01:01:16.621Z,1016.25
2022-11-10T01:02:16.562Z,1016.27
2022-11-10T01:03:16.661Z,1016.27
2022-11-10T01:04:16.539Z,1016.30
2022-11-10T01:05:16.529Z,1016.27
2022-11-10T01:06:16.530Z,1016.31
2022-11-10T01:07:16.493Z,1016.31
2022-11-10T01:08:16.497Z,1016.30
2022-11-10T01:09:16.482Z,1016.36
2022-11-10T01:10:16.457Z,1016.35
2022-11-10T01:11:16.431Z,1016.31
2022-11-10T01:12:16.450Z,1016.35
2022-11-10T01:13:16.477Z,1016.35
2022-11-10T01:14:16.414Z,1016.42
2022-11-10T01:15:16.381Z,1016.41
2022-11-10T01:16:16.399Z,1016.39
2022-11-10T01:17:16.383Z,1016.39
2022-11-10T01:18:16.356Z,1016.44
2022-11-10T01:19:16.339Z,1016.44
2022-11-10T01:20:16.356Z,1016.40
2022-11-10T01:21:16.323Z,1016.46
2022-11-10T01:22:16.304Z,1016.48
2022-11-10T01:23:16.289Z,1016.47
2022-11-10T01:24:16.305Z,1016.51
2022-11-10T01:25:16.272Z,1016.53
2022-11-10T01:26:16.321Z,1016.54
2022-11-10T01:27:16.286Z,1016.51
2022-11-10T01:28:16.329Z,1016.53
2022-11-10T01:29:16.272Z,1016.51
2022-11-10T01:30:16.220Z,1016.56
2022-11-10T01:31:16.201Z,1016.56
2022-11-10T01:32:16.213Z,1016.53
2022-11-10T01:33:16.210Z,1016.58
2022-11-10T01:34:16.191Z,1016.57
2022-11-10T01:35:16.168Z,1016.59
2022-11-10T01:36:16.120Z,1016.58
2022-11-10T01:37:16.152Z,1016.59
2022-11-10T01:38:16.118Z,1016.62
2022-11-10T01:39:16.099Z,1016.61
2022-11-10T01:40:16.146Z,1016.66
2022-11-10T01:41:16.077Z,1016.65
2022-11-10T01:42:16.061Z,1016.64
2022-11-10T01:43:16.064Z,1016.63
2022-11-10T01:44:16.045Z,1016.67
2022-11-10T01:45:16.034Z,1016.67
2022-11-10T01:46:16.025Z,1016.73
2022-11-10T01:47:16.005Z,1016.80
2022-11-10T01:48:15.993Z,1016.80
2022-11-10T01:49:15.963Z,1016.82
2022-11-10T01:50:15.998Z,1016.79
2022-11-10T01:51:15.981Z,1016.82
2022-11-10T01:52:15.936Z,1016.83
2022-11-10T01:53:15.904Z,1016.86
2022-11-10T01:54:15.917Z,1016.85
2022-11-10T01:55:15.920Z,1016.83
2022-11-10T01:56:15.906Z,1016.79
2022-11-10T01:57:15.893Z,1016.79
2022-11-10T01:58:15.877Z,1016.82
2022-11-10T01:59:15.876Z,1016.78
2022-11-10T02:00:15.819Z,1016.83
2022-11-10T02:01:15.962Z,1016.86
2022-11-10T02:02:15.856Z,1016.85
2022-11-10T02:03:15.777Z,1016.84
2022-11-10T02:04:15.774Z,1016.85
2022-11-10T02:05:15.813Z,1016.83
2022-11-10T02:06:15.747Z,1016.82
2022-11-10T02:07:15.830Z,1016.82
2022-11-10T02:08:15.950Z,1016.84
2022-11-10T02:09:15.738Z,1016.81
2022-11-10T02:10:15.728Z,1016.83
2022-11-10T02:11:15.720Z,1016.84
2022-11-10T02:12:15.678Z,1016.84
2022-11-10T02:13:15.695Z,1016.87
2022-11-10T02:14:15.667Z,1016.93
2022-11-10T02:15:15.647Z,1016.98
2022-11-10T02:16:15.660Z,1017.02
2022-11-10T02:17:15.637Z,1017.03
2022-11-10T02:18:15.603Z,1017.08
2022-11-10T02:19:15.643Z,1017.07
2022-11-10T02:20:15.604Z,1017.10
2022-11-10T02:21:15.648Z,1017.08
2022-11-10T02:22:15.568Z,1017.08
2022-11-10T02:23:15.580Z,1017.01
2022-11-10T02:24:15.525Z,1017.02
2022-11-10T02:25:15.512Z,1017.03
2022-11-10T02:26:15.526Z,1017.02
2022-11-10T02:27:15.501Z,1017.02
2022-11-10T02:28:15.485Z,1017.02
2022-11-10T02:29:15.501Z,1017.06
2022-11-10T02:30:15.442Z,1017.04
2022-11-10T02:31:15.487Z,1017.04
2022-11-10T02:32:15.457Z,1017.10
2022-11-10T02:33:15.452Z,1017.13
2022-11-10T02:34:15.401Z,1017.11
2022-11-10T02:35:15.381Z,1017.10
2022-11-10T02:36:15.367Z,1017.16
2022-11-10T02:37:15.420Z,1017.14
2022-11-10T02:38:15.377Z,1017.12
2022-11-10T02:39:15.424Z,1017.07
2022-11-10T02:40:15.353Z,1017.09
2022-11-10T02:41:15.347Z,1017.13
2022-11-10T02:42:15.299Z,1017.13
2022-11-10T02:43:15.318Z,1017.13
2022-11-10T02:44:15.347Z,1017.12
2022-11-10T02:45:15.251Z,1017.12
2022-11-10T02:46:15.232Z,1017.13
2022-11-10T02:47:15.252Z,1017.11
2022-11-10T02:48:15.221Z,1017.12
2022-11-10T02:49:15.252Z,1017.16
2022-11-10T02:50:15.236Z,1017.13
2022-11-10T02:51:15.178Z,1017.20
2022-11-10T02:52:15.175Z,1017.17
2022-11-10T02:53:15.203Z,1017.22
2022-11-10T02:54:15.166Z,1017.23
2022-11-10T02:55:15.142Z,1017.27
2022-11-10T02:56:15.150Z,1017.35
2022-11-10T02:57:15.119Z,1017.27
2022-11-10T02:58:15.088Z,1017.33
2022-11-10T02:59:15.104Z,1017.31
2022-11-10T03:00:15.077Z,1017.32
2022-11-10T03:01:15.105Z,1017.30
2022-11-10T03:02:15.033Z,1017.31
2022-11-10T03:03:15.039Z,1017.31
2022-11-10T03:04:15.037Z,1017.32
2022-11-10T03:05:15.021Z,1017.36
2022-11-10T03:06:15.049Z,1017.35
2022-11-10T03:07:15.102Z,1017.35
2022-11-10T03:08:14.978Z,1017.35
2022-11-10T03:09:15.027Z,1017.36
2022-11-10T03:10:14.957Z,1017.35
2022-11-10T03:11:14.953Z,1017.33
2022-11-10T03:12:14.924Z,1017.35
2022-11-10T03:13:14.933Z,1017.36
2022-11-10T03:14:14.919Z,1017.38
2022-11-10T03:15:14.901Z,1017.38
2022-11-10T03:16:14.861Z,1017.37
2022-11-10T03:17:14.867Z,1017.35
2022-11-10T03:18:14.838Z,1017.31
2022-11-10T03:19:14.877Z,1017.34
2022-11-10T03:20:14.836Z,1017.37
2022-11-10T03:21:14.820Z,1017.37
2022-11-10T03:22:14.820Z,1017.38
2022-11-10T03:23:14.781Z,1017.46
2022-11-10T03:24:14.859Z,1017.42
2022-11-10T03:25:14.780Z,1017.39
2022-11-10T03:26:14.777Z,1017.36
2022-11-10T03:27:14.794Z,1017.38
2022-11-10T03:28:14.718Z,1017.39
2022-11-10T03:29:14.745Z,1017.38
2022-11-10T03:30:14.828Z,1017.38
2022-11-10T03:31:14.697Z,1017.43
2022-11-10T03:32:14.657Z,1017.47
2022-11-10T03:33:14.680Z,1017.48
2022-11-10T03:34:14.680Z,1017.55
2022-11-10T03:35:14.662Z,1017.57
2022-11-10T03:36:14.672Z,1017.63
2022-11-10T03:37:14.621Z,1017.64
2022-11-10T03:38:14.606Z,1017.68
2022-11-10T03:39:14.605Z,1017.68
2022-11-10T03:40:14.600Z,1017.64
2022-11-10T03:41:19.853Z,1017.68
2022-11-10T03:42:15.608Z,1017.76
2022-11-10T03:43:14.524Z,1017.77
2022-11-10T03:44:14.524Z,1017.81
2022-11-10T03:45:14.505Z,1017.81
2022-11-10T03:46:14.500Z,1017.87
2022-11-10T03:47:14.496Z,1017.90
2022-11-10T03:48:14.540Z,1017.92
2022-11-10T03:49:14.507Z,1017.95
2022-11-10T03:50:14.441Z,1018.01
2022-11-10T03:51:14.427Z,1017.97
2022-11-10T03:52:14.424Z,1018.07
2022-11-10T03:53:14.442Z,1018.06
2022-11-10T03:54:14.407Z,1018.06
2022-11-10T03:55:14.404Z,1018.05
2022-11-10T03:56:14.367Z,1018.07
2022-11-10T03:57:14.387Z,1018.05
2022-11-10T03:58:14.349Z,1018.03
2022-11-10T03:59:14.377Z,1018.01
2022-11-10T04:00:14.360Z,1018.05
2022-11-10T04:01:14.480Z,1018.05
2022-11-10T04:02:14.303Z,1018.08
2022-11-10T04:03:14.305Z,1018.10
2022-11-10T04:04:14.266Z,1018.11
2022-11-10T04:05:14.269Z,1018.18
2022-11-10T04:06:14.257Z,1018.13
2022-11-10T04:07:14.276Z,1018.17
2022-11-10T04:08:14.263Z,1018.18
2022-11-10T04:09:14.209Z,1018.21
2022-11-10T04:10:14.199Z,1018.21
2022-11-10T04:11:14.195Z,1018.25
2022-11-10T04:12:14.169Z,1018.28
2022-11-10T04:13:14.191Z,1018.29
2022-11-10T04:14:14.146Z,1018.32
2022-11-10T04:15:14.125Z,1018.33
2022-11-10T04:16:14.169Z,1018.36
2022-11-10T04:17:14.119Z,1018.37
2022-11-10T04:18:14.105Z,1018.33
2022-11-10T04:19:14.091Z,1018.36
2022-11-10T04:20:14.122Z,1018.45
2022-11-10T04:21:14.070Z,1018.46
2022-11-10T04:22:14.062Z,1018.44
2022-11-10T04:23:14.027Z,1018.46
2022-11-10T04:24:14.009Z,1018.47
2022-11-10T04:25:14.027Z,1018.48
2022-11-10T04:26:14.009Z,1018.47
2022-11-10T04:27:13.976Z,1018.47
2022-11-10T04:28:13.982Z,1018.44
2022-11-10T04:29:13.936Z,1018.43
2022-11-10T04:30:14.141Z,1018.43
2022-11-10T04:31:13.960Z,1018.43
2022-11-10T04:32:13.936Z,1018.47
2022-11-10T04:33:13.922Z,1018.50
2022-11-10T04:34:13.911Z,1018.47
2022-11-10T04:35:13.900Z,1018.45
2022-11-10T04:36:13.894Z,1018.43
2022-11-10T04:37:13.905Z,1018.47
2022-11-10T04:38:13.869Z,1018.43
2022-11-10T04:39:13.868Z,1018.48
2022-11-10T04:40:13.868Z,1018.50
2022-11-10T04:41:13.818Z,1018.50
2022-11-10T04:42:13.806Z,1018.59
2022-11-10T04:43:13.805Z,1018.64
2022-11-10T04:44:13.790Z,1018.64
2022-11-10T04:45:13.780Z,1018.67
2022-11-10T04:46:13.760Z,1018.76
2022-11-10T04:47:13.766Z,1018.76
2022-11-10T04:48:13.716Z,1018.77
2022-11-10T04:49:13.706Z,1018.81
2022-11-10T04:50:13.718Z,1018.77
2022-11-10T04:51:13.769Z,1018.80
2022-11-10T04:52:13.719Z,1018.85
2022-11-10T04:53:13.679Z,1018.81
2022-11-10T04:54:13.641Z,1018.81
2022-11-10T04:55:13.622Z,1018.89
2022-11-10T04:56:13.633Z,1018.84
2022-11-10T04:57:13.637Z,1018.89
2022-11-10T04:58:13.621Z,1018.93
2022-11-10T04:59:13.585Z,1018.94
2022-11-10T05:00:13.613Z,1018.94
2022-11-10T05:01:13.657Z,1018.92
2022-11-10T05:02:13.541Z,1018.94
2022-11-10T05:03:13.600Z,1018.94
2022-11-10T05:04:13.550Z,1018.95
2022-11-10T05:05:13.548Z,1019.02
2022-11-10T05:06:13.500Z,1019.03
2022-11-10T05:07:13.575Z,1019.04
2022-11-10T05:08:13.502Z,1019.08
2022-11-10T05:09:13.459Z,1019.05
2022-11-10T05:10:13.456Z,1019.12
2022-11-10T05:11:13.442Z,1019.12
2022-11-10T05:12:15.351Z,1019.12
2022-11-10T05:13:14.477Z,1019.10
2022-11-10T05:14:13.426Z,1019.16
2022-11-10T05:15:13.383Z,1019.14
2022-11-10T05:16:13.416Z,1019.22
2022-11-10T05:17:13.363Z,1019.23
2022-11-10T05:18:13.344Z,1019.26
2022-11-10T05:19:13.416Z,1019.22
2022-11-10T05:20:13.347Z,1019.24
2022-11-10T05:21:13.304Z,1019.28
2022-11-10T05:22:13.300Z,1019.29
2022-11-10T05:23:13.305Z,1019.28
2022-11-10T05:24:13.300Z,1019.28
2022-11-10T05:25:13.323Z,1019.33
2022-11-10T05:26:13.241Z,1019.37
2022-11-10T05:27:13.232Z,1019.33
2022-11-10T05:28:13.259Z,1019.34
2022-11-10T05:29:13.228Z,1019.39
2022-11-10T05:30:13.207Z,1019.37
2022-11-10T05:31:13.225Z,1019.36
2022-11-10T05:32:13.171Z,1019.38
2022-11-10T05:33:13.176Z,1019.37
2022-11-10T05:34:13.141Z,1019.43
2022-11-10T05:35:13.133Z,1019.42
2022-11-10T05:36:13.136Z,1019.44
2022-11-10T05:37:13.131Z,1019.39
2022-11-10T05:38:13.128Z,1019.40
2022-11-10T05:39:13.095Z,1019.46
2022-11-10T05:40:13.073Z,1019.44
2022-11-10T05:41:22.770Z,1019.46
2022-11-10T05:42:13.036Z,1019.45
2022-11-10T05:43:13.967Z,1019.51
2022-11-10T05:44:13.015Z,1019.49
2022-11-10T05:45:13.028Z,1019.46
2022-11-10T05:46:13.002Z,1019.50
2022-11-10T05:47:12.986Z,1019.53
2022-11-10T05:48:13.012Z,1019.54
2022-11-10T05:49:20.517Z,1019.53
2022-11-10T05:50:12.930Z,1019.57
2022-11-10T05:51:12.930Z,1019.54
2022-11-10T05:52:12.917Z,1019.56
2022-11-10T05:53:12.880Z,1019.57
2022-11-10T05:54:12.877Z,1019.56
2022-11-10T05:55:12.891Z,1019.54
2022-11-10T05:56:12.886Z,1019.58
2022-11-10T05:57:12.869Z,1019.56
2022-11-10T05:58:12.871Z,1019.52
2022-11-10T05:59:12.830Z,1019.57
2022-11-10T06:00:12.841Z,1019.53
2022-11-10T06:01:12.809Z,1019.56
2022-11-10T06:02:12.817Z,1019.57
2022-11-10T06:03:12.845Z,1019.58
2022-11-10T06:04:12.773Z,1019.56
2022-11-10T06:05:12.790Z,1019.58
2022-11-10T06:06:12.760Z,1019.57
2022-11-10T06:07:12.777Z,1019.61
2022-11-10T06:08:12.718Z,1019.60
2022-11-10T06:09:12.725Z,1019.58
2022-11-10T06:10:12.722Z,1019.62
2022-11-10T06:11:12.679Z,1019.67
2022-11-10T06:12:12.682Z,1019.65
2022-11-10T06:13:12.704Z,1019.68
2022-11-10T06:14:12.644Z,1019.66
2022-11-10T06:15:12.661Z,1019.66
2022-11-10T06:16:12.616Z,1019.67
2022-11-10T06:17:12.614Z,1019.72
2022-11-10T06:18:12.637Z,1019.74
2022-11-10T06:19:12.624Z,1019.77
2022-11-10T06:20:12.568Z,1019.79
2022-11-10T06:21:12.552Z,1019.78
2022-11-10T06:22:12.552Z,1019.80
2022-11-10T06:23:13.484Z,1019.84
2022-11-10T06:24:12.517Z,1019.88
2022-11-10T06:25:12.534Z,1019.85
2022-11-10T06:26:12.522Z,1019.88
2022-11-10T06:27:12.481Z,1019.91
2022-11-10T06:28:12.463Z,1019.87
2022-11-10T06:29:12.471Z,1019.92
2022-11-10T06:30:12.481Z,1019.94
2022-11-10T06:31:12.436Z,1019.95
2022-11-10T06:32:12.417Z,1019.95
2022-11-10T06:33:12.418Z,1020.03
2022-11-10T06:34:12.408Z,1020.01
2022-11-10T06:35:12.381Z,1020.07
2022-11-10T06:36:12.423Z,1020.04
2022-11-10T06:37:12.365Z,1020.05
2022-11-10T06:38:12.375Z,1020.09
2022-11-10T06:39:12.322Z,1020.08
2022-11-10T06:40:12.349Z,1020.18
2022-11-10T06:41:12.320Z,1020.21
2022-11-10T06:42:12.315Z,1020.22
2022-11-10T06:43:12.272Z,1020.25
2022-11-10T06:44:12.270Z,1020.23
2022-11-10T06:45:12.270Z,1020.25
2022-11-10T06:46:12.252Z,1020.27
2022-11-10T06:47:12.242Z,1020.29
2022-11-10T06:48:12.289Z,1020.28
2022-11-10T06:49:12.206Z,1020.32
2022-11-10T06:50:12.207Z,1020.30
2022-11-10T06:51:12.191Z,1020.33
2022-11-10T06:52:12.161Z,1020.34
2022-11-10T06:53:12.195Z,1020.37
2022-11-10T06:54:12.185Z,1020.35
2022-11-10T06:55:12.129Z,1020.41
2022-11-10T06:56:12.137Z,1020.41
2022-11-10T06:57:12.114Z,1020.45
2022-11-10T06:58:12.106Z,1020.48
2022-11-10T06:59:12.088Z,1020.50
2022-11-10T07:00:12.094Z,1020.51
2022-11-10T07:01:12.129Z,1020.49
2022-11-10T07:02:12.080Z,1020.49
2022-11-10T07:03:12.048Z,1020.51
2022-11-10T07:04:19.605Z,1020.56
2022-11-10T07:05:13.017Z,1020.59
2022-11-10T07:06:12.006Z,1020.59
2022-11-10T07:07:12.083Z,1020.61
2022-11-10T07:08:11.999Z,1020.62
2022-11-10T07:09:11.986Z,1020.66
2022-11-10T07:10:11.947Z,1020.66
2022-11-10T07:11:12.893Z,1020.67
2022-11-10T07:12:11.922Z,1020.69
2022-11-10T07:13:11.990Z,1020.71
2022-11-10T07:14:11.941Z,1020.72
2022-11-10T07:15:11.890Z,1020.76
2022-11-10T07:16:11.883Z,1020.80
2022-11-10T07:17:11.900Z,1020.81
2022-11-10T07:18:11.857Z,1020.82
2022-11-10T07:19:11.871Z,1020.85
2022-11-10T07:20:11.837Z,1020.86
2022-11-10T07:21:11.856Z,1020.90
2022-11-10T07:22:11.799Z,1020.91
2022-11-10T07:23:11.796Z,1020.97
2022-11-10T07:24:11.775Z,1020.97
2022-11-10T07:25:11.747Z,1021.01
2022-11-10T07:26:11.743Z,1021.05
2022-11-10T07:27:11.740Z,1021.02
2022-11-10T07:28:11.726Z,1021.07
2022-11-10T07:29:11.706Z,1021.06
2022-11-10T07:30:11.696Z,1021.10
2022-11-10T07:31:11.686Z,1021.11
2022-11-10T07:32:11.676Z,1021.08
2022-11-10T07:33:11.688Z,1021.08
2022-11-10T07:34:11.664Z,1021.09
2022-11-10T07:35:11.634Z,1021.10
2022-11-10T07:36:11.628Z,1021.11
2022-11-10T07:37:11.620Z,1021.07
2022-11-10T07:38:11.626Z,1021.06
2022-11-10T07:39:11.582Z,1021.05
2022-11-10T07:40:12.941Z,1021.06
2022-11-10T07:41:11.581Z,1021.05
2022-11-10T07:42:11.554Z,1021.09
2022-11-10T07:43:11.526Z,1021.08
2022-11-10T07:44:11.573Z,1021.14
2022-11-10T07:45:11.514Z,1021.16
2022-11-10T07:46:11.496Z,1021.21
2022-11-10T07:47:11.482Z,1021.20
2022-11-10T07:48:11.492Z,1021.17
2022-11-10T07:49:11.473Z,1021.21
2022-11-10T07:50:11.445Z,1021.25
2022-11-10T07:51:11.421Z,1021.29
2022-11-10T07:52:11.424Z,1021.30
2022-11-10T07:53:11.416Z,1021.33
2022-11-10T07:54:11.430Z,1021.34
2022-11-10T07:55:11.408Z,1021.33
2022-11-10T07:56:11.379Z,1021.35
2022-11-10T07:57:11.377Z,1021.35
2022-11-10T07:58:11.347Z,1021.39
2022-11-10T07:59:11.368Z,1021.36
2022-11-10T08:00:11.339Z,1021.37
2022-11-10T08:01:11.304Z,1021.37
2022-11-10T08:02:11.300Z,1021.41
2022-11-10T08:03:11.291Z,1021.43
2022-11-10T08:04:11.270Z,1021.45
2022-11-10T08:05:11.311Z,1021.43
2022-11-10T08:06:11.282Z,1021.48
2022-11-10T08:07:11.298Z,1021.49
2022-11-10T08:08:11.223Z,1021.53
2022-11-10T08:09:11.205Z,1021.52
2022-11-10T08:10:11.180Z,1021.57
2022-11-10T08:11:11.163Z,1021.58
2022-11-10T08:12:11.166Z,1021.62
2022-11-10T08:13:11.141Z,1021.63
2022-11-10T08:14:11.140Z,1021.66
2022-11-10T08:15:11.249Z,1021.67
2022-11-10T08:16:11.107Z,1021.67
2022-11-10T08:17:11.105Z,1021.67
2022-11-10T08:18:11.073Z,1021.69
2022-11-10T08:19:11.057Z,1021.70
2022-11-10T08:20:11.033Z,1021.75
2022-11-10T08:21:11.027Z,1021.75
2022-11-10T08:22:11.016Z,1021.73
2022-11-10T08:23:11.020Z,1021.73
2022-11-10T08:24:10.984Z,1021.75
2022-11-10T08:25:10.985Z,1021.74
2022-11-10T08:26:10.957Z,1021.73
2022-11-10T08:27:10.969Z,1021.77
2022-11-10T08:28:10.938Z,1021.77
2022-11-10T08:29:10.958Z,1021.75
2022-11-10T08:30:10.965Z,1021.77
2022-11-10T08:31:10.901Z,1021.77
2022-11-10T08:32:10.903Z,1021.74
2022-11-10T08:33:10.899Z,1021.74
2022-11-10T08:34:10.841Z,1021.74
2022-11-10T08:35:10.839Z,1021.77
2022-11-10T08:36:10.872Z,1021.79
2022-11-10T08:37:10.818Z,1021.79
2022-11-10T08:38:10.821Z,1021.78
2022-11-10T08:39:10.790Z,1021.82
2022-11-10T08:40:10.782Z,1021.90
2022-11-10T08:41:10.784Z,1021.91
2022-11-10T08:42:10.770Z,1021.99
2022-11-10T08:43:10.759Z,1022.00
2022-11-10T08:44:11.122Z,1021.97
2022-11-10T08:45:10.797Z,1021.98
2022-11-10T08:46:10.695Z,1021.95
2022-11-10T08:47:10.678Z,1021.93
2022-11-10T08:48:10.691Z,1021.89
2022-11-10T08:49:10.672Z,1021.92
2022-11-10T08:50:10.677Z,1021.90
2022-11-10T08:51:10.677Z,1021.92
2022-11-10T08:52:10.604Z,1021.97
2022-11-10T08:53:10.615Z,1021.93
2022-11-10T08:54:10.592Z,1022.00
2022-11-10T08:55:10.574Z,1021.97
2022-11-10T08:56:10.571Z,1022.02
2022-11-10T08:57:10.536Z,1021.96
2022-11-10T08:58:10.513Z,1022.03
2022-11-10T08:59:10.526Z,1022.13
2022-11-10T09:00:10.525Z,1022.09
2022-11-10T09:01:10.503Z,1022.12
2022-11-10T09:02:10.470Z,1022.07
2022-11-10T09:03:10.475Z,1022.10
2022-11-10T09:04:10.523Z,1022.03
2022-11-10T09:05:10.438Z,1022.01
2022-11-10T09:06:10.415Z,1021.99
2022-11-10T09:07:10.535Z,1021.92
2022-11-10T09:08:10.423Z,1021.91
2022-11-10T09:09:10.354Z,1021.91
2022-11-10T09:10:10.380Z,1021.98
2022-11-10T09:11:10.361Z,1021.93
2022-11-10T09:12:10.330Z,1021.99
2022-11-10T09:13:10.343Z,1021.96
2022-11-10T09:14:10.309Z,1021.95
2022-11-10T09:15:10.279Z,1022.01
2022-11-10T09:16:10.267Z,1021.97
2022-11-10T09:17:10.302Z,1021.96
2022-11-10T09:18:10.246Z,1021.93
2022-11-10T09:19:12.280Z,1021.99
2022-11-10T09:20:11.399Z,1022.00
2022-11-10T09:21:10.211Z,1021.96
2022-11-10T09:22:10.183Z,1021.97
2022-11-10T09:23:10.189Z,1021.98
2022-11-10T09:24:10.172Z,1022.03
2022-11-10T09:25:10.154Z,1022.05
2022-11-10T09:26:10.124Z,1022.13
2022-11-10T09:27:10.145Z,1022.14
2022-11-10T09:28:10.138Z,1022.18
2022-11-10T09:29:10.083Z,1022.19
2022-11-10T09:30:16.151Z,1022.17
2022-11-10T09:31:11.063Z,1022.17
2022-11-10T09:32:10.041Z,1022.18
2022-11-10T09:33:10.027Z,1022.25
2022-11-10T09:34:10.046Z,1022.29
2022-11-10T09:35:10.003Z,1022.30
2022-11-10T09:36:10.001Z,1022.29
2022-11-10T09:37:09.961Z,1022.30
2022-11-10T09:38:09.956Z,1022.24
2022-11-10T09:39:09.926Z,1022.26
2022-11-10T09:40:12.860Z,1022.29
2022-11-10T09:41:09.928Z,1022.30
2022-11-10T09:42:09.909Z,1022.36
2022-11-10T09:43:09.878Z,1022.33
2022-11-10T09:44:09.855Z,1022.32
2022-11-10T09:45:09.858Z,1022.37
2022-11-10T09:46:09.831Z,1022.38
2022-11-10T09:47:12.087Z,1022.39
2022-11-10T09:48:09.824Z,1022.40
2022-11-10T09:49:09.811Z,1022.42
2022-11-10T09:50:09.799Z,1022.42
2022-11-10T09:51:09.783Z,1022.43
2022-11-10T09:52:09.747Z,1022.42
2022-11-10T09:53:09.729Z,1022.43
2022-11-10T09:54:09.725Z,1022.44
2022-11-10T09:55:09.727Z,1022.50
2022-11-10T09:56:09.690Z,1022.51
2022-11-10T09:57:09.661Z,1022.52
2022-11-10T09:58:09.701Z,1022.50
2022-11-10T09:59:09.638Z,1022.51
2022-11-10T10:00:09.629Z,1022.52
2022-11-10T10:01:09.677Z,1022.57
2022-11-10T10:02:09.612Z,1022.58
2022-11-10T10:03:09.593Z,1022.57
2022-11-10T10:04:09.548Z,1022.61
2022-11-10T10:05:09.559Z,1022.59
2022-11-10T10:06:09.549Z,1022.57
2022-11-10T10:07:11.814Z,1022.56
2022-11-10T10:08:09.557Z,1022.59
2022-11-10T10:09:17.021Z,1022.61
2022-11-10T10:10:13.121Z,1022.60
2022-11-10T10:11:10.479Z,1022.62
2022-11-10T10:12:16.970Z,1022.62
2022-11-10T10:13:09.410Z,1022.59
2022-11-10T10:14:16.941Z,1022.57
2022-11-10T10:15:09.401Z,1022.62
2022-11-10T10:16:09.402Z,1022.60
2022-11-10T10:17:09.376Z,1022.62
2022-11-10T10:18:09.356Z,1022.65
2022-11-10T10:19:09.363Z,1022.70
2022-11-10T10:20:09.315Z,1022.69
2022-11-10T10:21:09.320Z,1022.69
2022-11-10T10:22:09.309Z,1022.71
2022-11-10T10:23:09.327Z,1022.70
2022-11-10T10:24:12.611Z,1022.68
2022-11-10T10:25:09.254Z,1022.66
2022-11-10T10:26:09.238Z,1022.63
2022-11-10T10:27:09.234Z,1022.60
2022-11-10T10:28:09.213Z,1022.64
2022-11-10T10:29:09.245Z,1022.59
2022-11-10T10:30:09.176Z,1022.62
2022-11-10T10:31:09.165Z,1022.58
2022-11-10T10:32:09.178Z,1022.52
2022-11-10T10:33:09.171Z,1022.57
2022-11-10T10:34:09.155Z,1022.51
2022-11-10T10:35:09.122Z,1022.52
2022-11-10T10:36:09.095Z,1022.47
2022-11-10T10:37:09.095Z,1022.50
2022-11-10T10:38:09.087Z,1022.53
2022-11-10T10:39:09.063Z,1022.51
2022-11-10T10:40:09.049Z,1022.52
2022-11-10T10:41:09.021Z,1022.56
2022-11-10T10:42:09.011Z,1022.57
2022-11-10T10:43:09.026Z,1022.57
2022-11-10T10:44:08.993Z,1022.54
2022-11-10T10:45:09.042Z,1022.57
2022-11-10T10:46:08.968Z,1022.60
2022-11-10T10:47:09.018Z,1022.56
2022-11-10T10:48:08.930Z,1022.59
2022-11-10T10:49:27.355Z,1022.64
2022-11-10T10:50:09.929Z,1022.63
2022-11-10T10:51:08.883Z,1022.61
2022-11-10T10:52:08.921Z,1022.60
2022-11-10T10:53:08.875Z,1022.64
2022-11-10T10:54:08.842Z,1022.64
2022-11-10T10:55:08.831Z,1022.67
2022-11-10T10:56:08.832Z,1022.69
2022-11-10T10:57:08.810Z,1022.69
2022-11-10T10:58:08.801Z,1022.70
2022-11-10T10:59:08.792Z,1022.70
2022-11-10T11:00:08.766Z,1022.68
2022-11-10T11:01:08.789Z,1022.73
2022-11-10T11:02:08.749Z,1022.74
2022-11-10T11:03:08.756Z,1022.78
2022-11-10T11:04:08.710Z,1022.72
2022-11-10T11:05:08.701Z,1022.77
2022-11-10T11:06:08.744Z,1022.73
2022-11-10T11:07:08.845Z,1022.76
2022-11-10T11:08:08.679Z,1022.78
2022-11-10T11:09:08.671Z,1022.78
2022-11-10T11:10:08.643Z,1022.87
2022-11-10T11:11:08.650Z,1022.90
2022-11-10T11:12:08.595Z,1022.91
2022-11-10T11:13:08.597Z,1022.92
2022-11-10T11:14:08.600Z,1022.96
2022-11-10T11:15:08.576Z,1022.92
2022-11-10T11:16:08.556Z,1022.97
2022-11-10T11:17:08.610Z,1022.95
2022-11-10T11:18:08.520Z,1023.01
2022-11-10T11:19:08.510Z,1022.98
2022-11-10T11:20:08.521Z,1022.93
2022-11-10T11:21:08.526Z,1022.96
2022-11-10T11:22:08.460Z,1022.95
2022-11-10T11:23:08.474Z,1022.94
2022-11-10T11:24:08.532Z,1022.94
2022-11-10T11:25:08.460Z,1022.98
2022-11-10T11:26:08.429Z,1022.96
2022-11-10T11:27:08.406Z,1022.97
2022-11-10T11:28:08.403Z,1022.96
2022-11-10T11:29:08.387Z,1022.97
2022-11-10T11:30:08.360Z,1022.97
2022-11-10T11:31:08.401Z,1022.95
2022-11-10T11:32:08.386Z,1022.95
2022-11-10T11:33:08.343Z,1023.03
2022-11-10T11:34:08.323Z,1022.97
2022-11-10T11:35:08.300Z,1023.00
2022-11-10T11:36:08.278Z,1023.05
2022-11-10T11:37:11.279Z,1023.08
2022-11-10T11:38:09.267Z,1023.09
2022-11-10T11:39:08.245Z,1023.06
2022-11-10T11:40:08.214Z,1023.08
2022-11-10T11:41:08.217Z,1023.09
2022-11-10T11:42:16.774Z,1023.08
2022-11-10T11:43:08.206Z,1023.06
2022-11-10T11:44:08.192Z,1023.08
2022-11-10T11:45:08.162Z,1023.06
2022-11-10T11:46:08.167Z,1023.10
2022-11-10T11:47:08.164Z,1023.18
2022-11-10T11:48:08.102Z,1023.14
2022-11-10T11:49:08.087Z,1023.16
2022-11-10T11:50:08.139Z,1023.15
2022-11-10T11:51:08.088Z,1023.17
2022-11-10T11:52:08.100Z,1023.18
2022-11-10T11:53:08.068Z,1023.24
2022-11-10T11:54:08.062Z,1023.29
2022-11-10T11:55:08.070Z,1023.24
2022-11-10T11:56:08.006Z,1023.20
2022-11-10T11:57:08.019Z,1023.21
2022-11-10T11:58:07.975Z,1023.21
2022-11-10T11:59:08.011Z,1023.19
2022-11-10T12:00:07.949Z,1023.19
2022-11-10T12:01:07.979Z,1023.18
2022-11-10T12:02:08.008Z,1023.13
2022-11-10T12:03:07.945Z,1023.17
2022-11-10T12:04:07.900Z,1023.21
2022-11-10T12:05:07.885Z,1023.16